TimeCST,TemperatureF,Dew PointF,Humidity,Sea Level PressureIn,VisibilityMPH,Wind Direction,Wind SpeedMPH,Gust SpeedMPH,PrecipitationIn,Events,Conditions,WindDirDegrees,DateUTC
12:16 AM,24.8,19.4,80,29.89,10.0,NW,3.5,-,N/A,,Mostly Cloudy,320,2012-12-13 06:16:00
12:36 AM,24.8,19.4,80,29.89,10.0,Calm,Calm,-,N/A,,Overcast,0,2012-12-13 06:36:00
12:56 AM,23.0,19.4,86,29.89,10.0,Calm,Calm,-,N/A,,Scattered Clouds,0,2012-12-13 06:56:00
1:16 AM,23.0,19.4,86,29.89,10.0,NNW,3.5,-,N/A,,Mostly Cloudy,340,2012-12-13 07:16:00
1:36 AM,23.0,19.4,86,29.89,10.0,North,3.5,-,N/A,,Scattered Clouds,350,2012-12-13 07:36:00
1:56 AM,23.0,19.4,86,29.90,10.0,North,3.5,-,N/A,,Scattered Clouds,360,2012-12-13 07:56:00
2:16 AM,21.2,17.6,86,29.90,10.0,North,3.5,-,N/A,,Scattered Clouds,350,2012-12-13 08:16:00
2:36 AM,21.2,17.6,86,29.92,10.0,North,4.6,-,N/A,,Mostly Cloudy,350,2012-12-13 08:36:00
2:56 AM,21.2,17.6,86,29.94,10.0,NNW,3.5,-,N/A,,Mostly Cloudy,330,2012-12-13 08:56:00
3:16 AM,21.2,17.6,86,29.94,10.0,Calm,Calm,-,N/A,,Scattered Clouds,0,2012-12-13 09:16:00
3:36 AM,21.2,17.6,86,29.94,10.0,North,3.5,-,N/A,,Mostly Cloudy,350,2012-12-13 09:36:00
3:56 AM,21.2,17.6,86,29.94,10.0,North,3.5,-,N/A,,Mostly Cloudy,10,2012-12-13 09:56:00
4:16 AM,21.2,17.6,86,29.95,10.0,Calm,Calm,-,N/A,,Overcast,0,2012-12-13 10:16:00
4:36 AM,21.2,17.6,86,29.95,10.0,NNE,3.5,-,N/A,,Mostly Cloudy,30,2012-12-13 10:36:00
4:56 AM,21.2,17.6,86,29.96,10.0,Calm,Calm,-,N/A,,Scattered Clouds,0,2012-12-13 10:56:00
5:16 AM,21.2,17.6,86,29.97,10.0,Calm,Calm,-,N/A,,Mostly Cloudy,0,2012-12-13 11:16:00
5:36 AM,21.2,17.6,86,29.97,7.0,Calm,Calm,-,N/A,,Scattered Clouds,0,2012-12-13 11:36:00
5:56 AM,21.2,17.6,86,29.98,4.0,Calm,Calm,-,N/A,Snow,Light Snow,0,2012-12-13 11:56:00
6:16 AM,21.2,17.6,86,29.98,5.0,Calm,Calm,-,N/A,,Mostly Cloudy,0,2012-12-13 12:16:00
6:36 AM,19.4,17.6,93,29.98,5.0,Calm,Calm,-,N/A,Snow,Light Snow,0,2012-12-13 12:36:00
6:56 AM,19.4,17.6,93,29.98,10.0,North,3.5,-,N/A,,Clear,360,2012-12-13 12:56:00
7:16 AM,19.4,17.6,93,29.99,5.0,North,4.6,-,N/A,Snow,Light Snow,360,2012-12-13 13:16:00
7:36 AM,19.4,15.8,86,29.99,7.0,Calm,Calm,-,N/A,Snow,Light Snow,0,2012-12-13 13:36:00
7:56 AM,19.4,15.8,86,30.00,10.0,North,3.5,-,N/A,,Scattered Clouds,350,2012-12-13 13:56:00
8:16 AM,19.4,15.8,86,30.00,7.0,NNE,3.5,-,N/A,,Mostly Cloudy,20,2012-12-13 14:16:00
8:36 AM,19.4,15.8,86,30.01,7.0,Calm,Calm,-,N/A,,Overcast,0,2012-12-13 14:36:00
8:56 AM,19.4,15.8,86,30.02,7.0,Calm,Calm,-,N/A,,Overcast,0,2012-12-13 14:56:00
9:16 AM,19.4,15.8,86,30.02,10.0,North,5.8,-,N/A,,Overcast,350,2012-12-13 15:16:00
9:36 AM,17.6,15.8,93,30.02,10.0,Calm,Calm,-,N/A,,Overcast,0,2012-12-13 15:36:00
9:56 AM,19.4,15.8,86,30.02,10.0,NNE,4.6,-,N/A,,Overcast,30,2012-12-13 15:56:00
10:16 AM,17.6,15.8,93,30.04,10.0,Calm,Calm,-,N/A,,Overcast,0,2012-12-13 16:16:00
10:36 AM,17.6,15.8,93,30.04,10.0,NE,3.5,-,N/A,,Overcast,40,2012-12-13 16:36:00
10:56 AM,17.6,15.8,93,30.04,10.0,NE,3.5,-,N/A,,Overcast,50,2012-12-13 16:56:00
11:16 AM,17.6,15.8,93,30.06,10.0,Calm,Calm,-,N/A,,Overcast,0,2012-12-13 17:16:00
11:36 AM,17.6,15.8,93,30.06,10.0,North,3.5,-,N/A,,Overcast,360,2012-12-13 17:36:00
11:56 AM,17.6,15.8,93,30.06,10.0,NW,4.6,-,N/A,,Overcast,310,2012-12-13 17:56:00
12:16 PM,17.6,14.0,86,30.06,10.0,NNW,3.5,-,N/A,,Overcast,340,2012-12-13 18:16:00
12:36 PM,17.6,14.0,86,30.05,10.0,North,4.6,-,N/A,,Overcast,350,2012-12-13 18:36:00
12:56 PM,19.4,15.8,86,30.05,10.0,NW,4.6,-,N/A,,Mostly Cloudy,310,2012-12-13 18:56:00
1:16 PM,21.2,15.8,80,30.04,10.0,North,4.6,-,N/A,,Mostly Cloudy,360,2012-12-13 19:16:00
1:36 PM,21.2,15.8,80,30.04,10.0,NW,3.5,-,N/A,,Clear,320,2012-12-13 19:36:00
1:56 PM,21.2,15.8,80,30.04,10.0,North,3.5,-,N/A,,Clear,350,2012-12-13 19:56:00
2:16 PM,21.2,14.0,74,30.04,10.0,North,3.5,-,N/A,,Clear,350,2012-12-13 20:16:00
2:36 PM,21.2,15.8,80,30.04,10.0,Calm,Calm,-,N/A,,Clear,0,2012-12-13 20:36:00
2:56 PM,21.2,15.8,80,30.04,10.0,West,3.5,-,N/A,,Clear,270,2012-12-13 20:56:00
3:16 PM,19.4,15.8,86,30.05,10.0,Calm,Calm,-,N/A,,Clear,0,2012-12-13 21:16:00
3:36 PM,19.4,14.0,80,30.05,10.0,Calm,Calm,-,N/A,,Clear,0,2012-12-13 21:36:00
3:56 PM,19.4,14.0,80,30.05,10.0,Calm,Calm,-,N/A,,Clear,0,2012-12-13 21:56:00
4:16 PM,19.4,14.0,80,30.05,10.0,Calm,Calm,-,N/A,,Clear,0,2012-12-13 22:16:00
4:36 PM,15.8,12.2,86,30.05,10.0,Calm,Calm,-,N/A,,Clear,0,2012-12-13 22:36:00
5:36 PM,10.4,8.6,92,30.06,10.0,Calm,Calm,-,N/A,,Clear,0,2012-12-13 23:36:00
6:56 PM,6.8,5.0,92,30.08,10.0,Calm,Calm,-,N/A,,Clear,0,2012-12-14 00:56:00
7:16 PM,6.8,5.0,92,30.08,10.0,Calm,Calm,-,N/A,,Clear,0,2012-12-14 01:16:00
7:56 PM,5.0,3.2,92,30.10,10.0,Calm,Calm,-,N/A,,Clear,0,2012-12-14 01:56:00
8:16 PM,5.0,1.4,85,30.10,10.0,Calm,Calm,-,N/A,,Clear,0,2012-12-14 02:16:00
8:36 PM,3.2,1.4,92,30.09,10.0,Calm,Calm,-,N/A,,Clear,0,2012-12-14 02:36:00
8:56 PM,3.2,1.4,92,30.09,10.0,Calm,Calm,-,N/A,,Clear,0,2012-12-14 02:56:00
9:16 PM,3.2,1.4,92,30.09,10.0,Calm,Calm,-,N/A,,Clear,0,2012-12-14 03:16:00
9:36 PM,3.2,-0.4,85,30.09,10.0,Calm,Calm,-,N/A,,Clear,0,2012-12-14 03:36:00
9:56 PM,3.2,-0.4,85,30.10,10.0,Calm,Calm,-,N/A,,Clear,0,2012-12-14 03:56:00
10:16 PM,1.4,-0.4,92,30.09,10.0,Calm,Calm,-,N/A,,Clear,0,2012-12-14 04:16:00
10:36 PM,1.4,-0.4,92,30.09,10.0,Calm,Calm,-,N/A,,Clear,0,2012-12-14 04:36:00
10:56 PM,1.4,-0.4,92,30.09,10.0,Calm,Calm,-,N/A,,Clear,0,2012-12-14 04:56:00
11:16 PM,1.4,-0.4,92,30.10,10.0,Calm,Calm,-,N/A,,Clear,0,2012-12-14 05:16:00
11:36 PM,1.4,-0.4,92,30.10,10.0,Calm,Calm,-,N/A,,Clear,0,2012-12-14 05:36:00